Aérodrome :
LOGIN :

S'inscrire | Disclaimer

   EN    FR    IT 

 










Légende :    VFR   VFR Marginal   IFR   IFR Intensif   IFR Très Intensif
Visi : 
Plafond : 
>= 8 km
>= 3000ft
5 à 8 km
1000 à 3000 ft
1500m à 5 km
500 à 1000 ft
800 à 1500m
200 à 500 ft
< 800m
< 200 ft
Symboles :   Orages  Brouillard  Fortes neiges  Fortes précipitations  Vent > 20 kt
SIGMETs :   Divers  Orages  Givrage  Turbulence  Onde Orograph.  Cendres Volcan.






- Altitude de l'aérodrome : 141 ft
- Code IATA : SKS


EKSP - Srydstrup Vojens

DERNIER METAR :
  • 171220Z 17007KT CAVOK 06/04 Q1014 RMK BKN200

METARs EXPIRÉS :
  • 171150Z 19004KT CAVOK 05/03 Q1014 RMK BKN200
  • 171120Z 17006KT CAVOK 05/03 Q1014 RMK FEW200
  • 171050Z 18007KT CAVOK 05/03 Q1014 RMK FEW200
  • 171020Z 20006KT CAVOK 05/03 Q1014 RMK FEW200
  • 170950Z 19007KT CAVOK 05/03 Q1014 RMK FEW200

TAF TAF EKSP
Valide du 17 à 12h jusqu'au 18 à 12h UTC


171123Z 1712/1812 20012KT 9999 SCT018 BKN150
TEMPO 1715/1721 3000 BR
BECMG 1718/1721 05010KT
BECMG 1721/1724 7000 -RADZ BKN012
TEMPO 1800/1803 4000 BR BKN005
TEMPO 1803/1810 06012G22KT 2500 -RADZ BKN003



MET'MAP, la Météo Aéronautique d'un coup d'oeil ! - Copyright ORBIFLY Décembre 2007 - Disclaimer

ORBIFLY MET'MAP TEAM :

Programmation & Développement : Alexandra Zaïnal
Conception & Développement : Baudouin d'Aumeries
Co-Programmation & Développement : Marc-Olivier Méhu
Soutien technique & logistique : Manuel Goepfert

Contact : metmap@orbifly.com




SOURCES & CREDITS :

   NOAA